createdAt,value
2023-02-28T00:01:28.409Z,4.48
2023-02-28T00:04:01.388Z,4.41
2023-02-28T00:06:28.836Z,4.52
2023-02-28T00:08:56.765Z,4.60
2023-02-28T00:11:24.433Z,4.49
2023-02-28T00:13:52.032Z,4.75
2023-02-28T00:16:22.191Z,4.57
2023-02-28T00:18:50.026Z,4.60
2023-02-28T00:21:18.860Z,4.52
2023-02-28T00:23:46.689Z,4.61
2023-02-28T00:26:15.427Z,4.42
2023-02-28T00:28:43.530Z,4.32
2023-02-28T00:31:11.323Z,4.35
2023-02-28T00:33:38.780Z,4.44
2023-02-28T00:36:08.580Z,4.51
2023-02-28T00:38:38.228Z,4.54
2023-02-28T00:41:06.026Z,4.55
2023-02-28T00:43:35.448Z,4.72
2023-02-28T00:46:03.804Z,4.62
2023-02-28T00:48:31.810Z,4.53
2023-02-28T00:50:59.320Z,4.65
2023-02-28T00:53:27.280Z,4.63
2023-02-28T00:55:54.781Z,4.90
2023-02-28T00:58:22.473Z,5.05
2023-02-28T01:00:50.561Z,5.04
2023-02-28T01:03:19.015Z,4.75
2023-02-28T01:05:47.408Z,4.52
2023-02-28T01:08:15.882Z,4.59
2023-02-28T01:10:43.744Z,4.68
2023-02-28T01:13:12.189Z,4.70
2023-02-28T01:15:43.532Z,4.75
2023-02-28T01:18:12.036Z,4.81
2023-02-28T01:20:39.734Z,4.83
2023-02-28T01:23:07.310Z,4.84
2023-02-28T01:25:36.495Z,4.88
2023-02-28T01:28:06.848Z,4.73
2023-02-28T01:30:36.782Z,4.81
2023-02-28T01:33:04.419Z,4.77
2023-02-28T01:35:36.130Z,4.82
2023-02-28T01:38:20.499Z,4.78
2023-02-28T01:40:49.067Z,4.76
2023-02-28T01:43:26.856Z,4.74
2023-02-28T01:45:57.632Z,4.92
2023-02-28T01:48:32.636Z,4.91
2023-02-28T01:51:06.240Z,4.88
2023-02-28T01:53:37.486Z,4.84
2023-02-28T01:56:07.248Z,4.96
2023-02-28T01:58:35.486Z,4.84
2023-02-28T02:01:04.040Z,4.90
2023-02-28T02:03:32.348Z,4.87
2023-02-28T02:05:59.725Z,4.86
2023-02-28T02:08:29.403Z,4.99
2023-02-28T02:10:59.561Z,4.98
2023-02-28T02:14:01.302Z,5.05
2023-02-28T02:16:37.860Z,5.03
2023-02-28T02:19:15.655Z,5.18
2023-02-28T02:22:03.740Z,4.97
2023-02-28T02:24:50.494Z,5.06
2023-02-28T02:27:19.304Z,5.06
2023-02-28T02:30:23.422Z,5.19
2023-02-28T02:33:30.130Z,5.35
2023-02-28T02:36:28.844Z,5.03
2023-02-28T02:38:56.435Z,4.97
2023-02-28T02:41:39.202Z,5.01
2023-02-28T02:44:16.035Z,4.96
2023-02-28T02:46:48.684Z,4.90
2023-02-28T02:49:21.480Z,5.12
2023-02-28T02:51:49.512Z,5.30
2023-02-28T02:54:32.818Z,4.96
2023-02-28T02:57:12.932Z,5.14
2023-02-28T02:59:43.630Z,5.05
2023-02-28T03:02:14.033Z,5.19
2023-02-28T03:04:44.921Z,4.73
2023-02-28T03:07:14.381Z,4.76
2023-02-28T03:09:42.394Z,5.10
2023-02-28T03:12:13.304Z,4.75
2023-02-28T03:14:58.768Z,4.81
2023-02-28T03:18:05.161Z,5.12
2023-02-28T03:20:35.497Z,4.49
2023-02-28T03:23:12.113Z,4.53
2023-02-28T03:25:45.223Z,4.75
2023-02-28T03:28:34.186Z,4.71
2023-02-28T03:31:11.132Z,4.51
2023-02-28T03:34:06.019Z,4.53
2023-02-28T03:36:46.829Z,4.59
2023-02-28T03:39:24.702Z,4.82
2023-02-28T03:42:23.464Z,4.46
2023-02-28T03:44:58.682Z,4.65
2023-02-28T03:47:40.641Z,4.66
2023-02-28T03:50:08.736Z,4.58
2023-02-28T03:52:39.590Z,4.87
2023-02-28T03:55:11.188Z,4.51
2023-02-28T03:57:44.861Z,4.60
2023-02-28T04:00:29.402Z,4.34
2023-02-28T04:02:57.506Z,4.28
2023-02-28T04:05:25.220Z,4.40
2023-02-28T04:07:52.785Z,4.16
2023-02-28T04:10:20.867Z,3.99
2023-02-28T04:12:48.368Z,4.22
2023-02-28T04:15:16.073Z,3.86
2023-02-28T04:17:43.964Z,4.22
2023-02-28T04:20:12.668Z,4.21
2023-02-28T04:22:40.132Z,4.41
2023-02-28T04:25:08.451Z,4.37
2023-02-28T04:27:36.091Z,4.30
2023-02-28T04:30:03.989Z,4.35
2023-02-28T04:32:31.724Z,4.33
2023-02-28T04:34:59.293Z,4.49
2023-02-28T04:37:29.804Z,4.53
2023-02-28T04:39:57.570Z,4.46
2023-02-28T04:42:24.967Z,4.56
2023-02-28T04:44:52.392Z,4.64
2023-02-28T04:47:20.204Z,4.54
2023-02-28T04:49:47.806Z,4.70
2023-02-28T04:52:15.291Z,4.55
2023-02-28T04:54:42.949Z,4.52
2023-02-28T04:57:11.325Z,4.63
2023-02-28T04:59:38.812Z,4.78
2023-02-28T05:02:08.188Z,4.84
2023-02-28T05:04:35.896Z,4.83
2023-02-28T05:07:04.222Z,4.87
2023-02-28T05:09:33.934Z,4.78
2023-02-28T05:12:01.383Z,4.74
2023-02-28T05:14:28.873Z,4.85
2023-02-28T05:16:56.598Z,4.85
2023-02-28T05:19:24.027Z,4.95
2023-02-28T05:21:53.826Z,5.22
2023-02-28T05:24:23.934Z,5.27
2023-02-28T05:26:54.174Z,4.86
2023-02-28T05:29:26.417Z,4.65
2023-02-28T05:31:54.152Z,4.64
2023-02-28T05:34:21.971Z,4.74
2023-02-28T05:36:49.494Z,4.53
2023-02-28T05:39:16.903Z,4.87
2023-02-28T05:41:45.043Z,5.01
2023-02-28T05:44:13.531Z,4.89
2023-02-28T05:46:41.227Z,4.78
2023-02-28T05:49:09.197Z,4.82
2023-02-28T05:51:37.435Z,5.00
2023-02-28T05:54:05.056Z,4.94
2023-02-28T05:56:33.393Z,5.03
2023-02-28T05:59:00.851Z,5.04
2023-02-28T06:01:40.484Z,5.02
2023-02-28T06:04:19.450Z,5.23
2023-02-28T06:06:50.840Z,5.13
2023-02-28T06:09:21.982Z,5.38
2023-02-28T06:11:49.379Z,5.65
2023-02-28T06:14:18.925Z,5.63
2023-02-28T06:16:46.794Z,5.68
2023-02-28T06:19:14.637Z,5.76
2023-02-28T06:21:42.366Z,5.64
2023-02-28T06:24:10.447Z,5.72
2023-02-28T06:26:37.885Z,5.65
2023-02-28T06:29:05.303Z,5.49
2023-02-28T06:31:33.579Z,5.39
2023-02-28T06:34:01.170Z,5.46
2023-02-28T06:36:28.738Z,5.60
2023-02-28T06:38:57.130Z,5.62
2023-02-28T06:41:26.461Z,5.84
2023-02-28T06:43:54.677Z,5.72
2023-02-28T06:46:22.827Z,5.95
2023-02-28T06:48:50.678Z,5.93
2023-02-28T06:51:21.436Z,5.83
2023-02-28T06:53:49.568Z,5.68
2023-02-28T06:56:18.118Z,5.48
2023-02-28T06:58:50.859Z,5.69
2023-02-28T07:01:20.090Z,5.82
2023-02-28T07:03:47.951Z,5.74
2023-02-28T07:06:15.419Z,5.31
2023-02-28T07:08:43.320Z,5.27
2023-02-28T07:11:10.774Z,5.38
2023-02-28T07:13:38.212Z,5.54
2023-02-28T07:16:08.871Z,5.87
2023-02-28T07:18:37.063Z,6.08
2023-02-28T07:21:06.054Z,6.10
2023-02-28T07:23:33.800Z,5.88
2023-02-28T07:26:01.331Z,5.90
2023-02-28T07:28:28.965Z,6.13
2023-02-28T07:30:56.926Z,6.72
2023-02-28T07:33:25.141Z,6.06
2023-02-28T07:35:52.871Z,6.32
2023-02-28T07:38:20.744Z,6.06
2023-02-28T07:40:48.348Z,5.76
2023-02-28T07:43:15.862Z,6.04
2023-02-28T07:45:43.613Z,6.19
2023-02-28T07:48:11.177Z,6.51
2023-02-28T07:50:38.877Z,6.29
2023-02-28T07:53:06.779Z,5.90
2023-02-28T07:58:13.551Z,6.52
2023-02-28T08:00:41.471Z,6.52
2023-02-28T08:03:13.503Z,6.03
2023-02-28T08:05:41.549Z,6.44
2023-02-28T08:08:09.611Z,6.26
2023-02-28T08:10:37.792Z,5.23
2023-02-28T08:13:05.343Z,5.31
2023-02-28T08:15:33.245Z,5.63
2023-02-28T08:18:00.951Z,5.53
2023-02-28T08:20:28.519Z,5.47
2023-02-28T08:22:56.153Z,5.40
2023-02-28T08:25:23.481Z,5.98
2023-02-28T08:27:52.987Z,5.48
2023-02-28T08:30:20.707Z,5.71
2023-02-28T08:32:48.188Z,5.76
2023-02-28T08:35:15.757Z,5.87
2023-02-28T08:37:43.743Z,6.03
2023-02-28T08:40:11.944Z,6.25
2023-02-28T08:42:39.323Z,6.26
2023-02-28T08:45:07.490Z,6.15
2023-02-28T08:47:35.319Z,6.31
2023-02-28T08:50:02.736Z,6.32
2023-02-28T08:52:30.632Z,6.03
2023-02-28T08:54:57.982Z,6.17
2023-02-28T08:57:27.285Z,6.96
2023-02-28T08:59:55.114Z,6.03
2023-02-28T09:02:22.547Z,6.11
2023-02-28T09:04:50.123Z,6.21
2023-02-28T09:07:17.841Z,6.14
2023-02-28T09:09:55.142Z,6.40
2023-02-28T09:12:24.411Z,6.65
2023-02-28T09:14:52.628Z,6.66
2023-02-28T09:17:20.633Z,6.27
2023-02-28T09:19:51.407Z,7.11
2023-02-28T09:22:19.042Z,7.20
2023-02-28T09:24:46.443Z,7.29
2023-02-28T09:27:14.409Z,7.84
2023-02-28T09:29:41.970Z,7.84
2023-02-28T09:32:09.785Z,6.81
2023-02-28T09:34:38.356Z,7.06
2023-02-28T09:37:05.804Z,7.84
2023-02-28T09:39:33.243Z,7.83
2023-02-28T09:42:03.069Z,7.33
2023-02-28T09:44:36.625Z,7.64
2023-02-28T09:47:20.227Z,7.54
2023-02-28T09:49:50.246Z,7.49
2023-02-28T09:52:20.599Z,7.56
2023-02-28T09:54:48.395Z,7.27
2023-02-28T09:57:22.581Z,7.43
2023-02-28T10:00:02.423Z,8.06
2023-02-28T10:03:02.449Z,8.31
2023-02-28T10:05:35.508Z,7.89
2023-02-28T10:08:17.144Z,7.72
2023-02-28T10:10:50.605Z,7.87
2023-02-28T10:13:26.570Z,7.52
2023-02-28T10:16:02.326Z,7.39
2023-02-28T10:18:39.672Z,7.17
2023-02-28T10:21:09.903Z,7.37
2023-02-28T10:23:38.541Z,7.94
2023-02-28T10:26:18.107Z,7.72
2023-02-28T10:28:46.021Z,7.65
2023-02-28T10:31:17.872Z,7.85
2023-02-28T10:33:46.419Z,8.14
2023-02-28T10:36:19.879Z,7.98
2023-02-28T10:38:48.525Z,7.30
2023-02-28T10:41:29.862Z,7.10
2023-02-28T10:44:30.297Z,7.42
2023-02-28T10:46:57.835Z,7.29
2023-02-28T10:49:28.322Z,6.70
2023-02-28T10:52:01.138Z,7.12
2023-02-28T10:54:38.798Z,7.60
2023-02-28T10:57:10.353Z,7.65
2023-02-28T10:59:38.379Z,7.28
2023-02-28T11:02:36.052Z,7.61
2023-02-28T11:05:25.147Z,7.59
2023-02-28T11:07:55.121Z,8.10
2023-02-28T11:10:28.998Z,8.00
2023-02-28T11:13:02.696Z,7.56
2023-02-28T11:16:04.773Z,7.82
2023-02-28T11:18:48.910Z,8.06
2023-02-28T11:21:21.648Z,8.93
2023-02-28T11:23:49.997Z,9.12
2023-02-28T11:26:42.237Z,8.51
2023-02-28T11:32:20.341Z,8.47
2023-02-28T11:35:12.400Z,8.14
2023-02-28T11:37:58.741Z,8.41
2023-02-28T11:41:04.495Z,8.27
2023-02-28T11:43:56.050Z,8.59
2023-02-28T11:46:57.055Z,7.81
2023-02-28T11:52:47.955Z,8.14
2023-02-28T11:56:01.500Z,8.50
2023-02-28T11:58:40.736Z,8.87
2023-02-28T12:01:16.409Z,8.05
2023-02-28T12:04:01.749Z,8.49
2023-02-28T12:07:00.336Z,8.45
2023-02-28T12:09:48.113Z,8.77
2023-02-28T12:12:43.781Z,8.74
2023-02-28T12:15:46.942Z,8.79
2023-02-28T12:18:51.645Z,8.61
2023-02-28T12:21:25.849Z,8.51
2023-02-28T12:23:59.249Z,8.68
2023-02-28T12:26:39.885Z,9.04
2023-02-28T12:29:29.740Z,9.26
2023-02-28T12:32:27.161Z,9.40
2023-02-28T12:35:09.775Z,9.20
2023-02-28T12:37:46.858Z,8.73
2023-02-28T12:40:18.749Z,8.95
2023-02-28T12:42:50.674Z,8.94
2023-02-28T12:45:24.562Z,9.04
2023-02-28T12:47:58.827Z,9.11
2023-02-28T12:50:27.343Z,8.88
2023-02-28T12:53:25.330Z,8.98
2023-02-28T12:55:58.797Z,8.74
2023-02-28T12:59:15.958Z,8.51
2023-02-28T13:01:55.694Z,9.04
2023-02-28T13:04:51.167Z,8.87
2023-02-28T13:07:34.196Z,9.16
2023-02-28T13:20:21.467Z,8.98
2023-02-28T13:25:34.184Z,8.94
2023-02-28T13:35:00.736Z,10.38
2023-02-28T13:37:31.539Z,10.38
2023-02-28T13:40:11.104Z,9.14
2023-02-28T13:42:57.055Z,9.42
2023-02-28T13:45:25.825Z,9.11
2023-02-28T13:47:56.485Z,8.65
2023-02-28T13:50:26.934Z,8.69
2023-02-28T13:53:14.325Z,8.94
2023-02-28T13:56:04.686Z,9.03
2023-02-28T13:59:14.335Z,8.24
2023-02-28T14:02:00.860Z,8.69
2023-02-28T14:04:51.646Z,8.60
2023-02-28T14:10:09.471Z,9.36
2023-02-28T14:13:12.146Z,9.36
2023-02-28T14:15:42.723Z,8.85
2023-02-28T14:18:22.683Z,8.55
2023-02-28T14:20:55.049Z,8.66
2023-02-28T14:24:14.183Z,9.08
2023-02-28T14:27:07.311Z,9.27
2023-02-28T14:30:00.624Z,9.15
2023-02-28T14:33:09.547Z,9.00
2023-02-28T14:38:53.150Z,8.23
2023-02-28T14:41:30.084Z,8.51
2023-02-28T14:46:41.416Z,8.78
2023-02-28T14:49:22.245Z,8.74
2023-02-28T14:57:02.147Z,8.93
2023-02-28T15:03:40.559Z,9.33
2023-02-28T15:10:25.657Z,9.91
2023-02-28T15:13:46.170Z,9.22
2023-02-28T15:19:50.337Z,8.74
2023-02-28T15:47:28.552Z,9.38
2023-02-28T16:09:57.386Z,9.28
2023-02-28T16:15:45.856Z,9.29
2023-02-28T16:19:56.673Z,9.04
2023-02-28T16:36:50.288Z,8.45
2023-02-28T16:43:37.301Z,8.93
2023-02-28T16:46:06.581Z,8.93
2023-02-28T16:48:34.208Z,8.69
2023-02-28T16:51:01.716Z,8.65
2023-02-28T16:53:29.460Z,8.54
2023-02-28T16:55:56.981Z,8.23
2023-02-28T16:58:26.606Z,8.56
2023-02-28T17:00:54.488Z,8.10
2023-02-28T17:03:32.750Z,8.20
2023-02-28T17:06:01.562Z,8.32
2023-02-28T17:08:30.438Z,8.32
2023-02-28T17:10:57.956Z,8.20
2023-02-28T17:13:25.832Z,8.39
2023-02-28T17:15:53.474Z,8.39
2023-02-28T17:18:22.282Z,8.57
2023-02-28T17:20:50.470Z,8.20
2023-02-28T17:23:18.154Z,8.18
2023-02-28T17:25:57.506Z,8.36
2023-02-28T17:28:25.896Z,8.34
2023-02-28T17:30:53.513Z,8.67
2023-02-28T17:33:21.152Z,8.75
2023-02-28T17:35:48.996Z,8.56
2023-02-28T17:38:18.419Z,8.67
2023-02-28T17:40:46.032Z,8.69
2023-02-28T17:43:13.971Z,8.38
2023-02-28T17:45:42.132Z,8.61
2023-02-28T17:48:11.581Z,8.92
2023-02-28T17:50:39.327Z,8.67
2023-02-28T17:53:06.778Z,8.46
2023-02-28T17:55:35.468Z,8.41
2023-02-28T17:58:04.334Z,8.40
2023-02-28T18:00:34.511Z,8.60
2023-02-28T18:03:02.420Z,8.34
2023-02-28T18:05:30.287Z,8.16
2023-02-28T18:07:57.757Z,8.55
2023-02-28T18:10:25.731Z,8.33
2023-02-28T18:12:53.196Z,8.60
2023-02-28T18:15:22.246Z,8.52
2023-02-28T18:17:50.745Z,8.49
2023-02-28T18:20:19.123Z,8.51
2023-02-28T18:22:47.659Z,8.35
2023-02-28T18:25:17.228Z,8.66
2023-02-28T18:27:54.316Z,8.51
2023-02-28T18:30:22.985Z,8.55
2023-02-28T18:32:50.465Z,8.61
2023-02-28T18:35:34.778Z,8.39
2023-02-28T18:38:15.199Z,8.69
2023-02-28T18:40:43.514Z,8.81
2023-02-28T18:43:11.338Z,8.52
2023-02-28T18:45:39.239Z,8.60
2023-02-28T18:48:06.648Z,8.50
2023-02-28T18:50:34.412Z,8.56
2023-02-28T18:53:03.405Z,8.59
2023-02-28T18:55:34.243Z,8.52
2023-02-28T18:58:02.364Z,8.62
2023-02-28T19:01:00.683Z,9.23
2023-02-28T19:05:15.199Z,8.75
2023-02-28T19:20:30.860Z,8.62
2023-02-28T19:23:00.582Z,8.52
2023-02-28T19:25:29.601Z,8.55
2023-02-28T19:34:39.307Z,9.04
2023-02-28T19:41:04.574Z,9.02
2023-02-28T19:43:34.915Z,9.02
2023-02-28T19:46:03.320Z,8.55
2023-02-28T20:07:59.511Z,9.31
2023-02-28T20:13:28.085Z,9.21
2023-02-28T20:17:43.142Z,8.75
2023-02-28T20:20:11.787Z,8.70
2023-02-28T20:22:39.719Z,8.81
2023-02-28T20:25:08.182Z,8.77
2023-02-28T20:27:36.079Z,8.81
2023-02-28T20:30:04.837Z,8.82
2023-02-28T20:32:33.258Z,8.91
2023-02-28T20:35:01.081Z,8.90
2023-02-28T20:37:28.872Z,8.81
2023-02-28T20:39:56.323Z,8.53
2023-02-28T20:42:24.236Z,8.71
2023-02-28T20:44:51.623Z,8.60
2023-02-28T20:47:19.110Z,8.71
2023-02-28T20:49:46.788Z,8.74
2023-02-28T20:52:14.195Z,8.71
2023-02-28T20:54:41.675Z,8.62
2023-02-28T20:57:09.504Z,8.62
2023-02-28T20:59:38.867Z,8.63
2023-02-28T21:02:07.099Z,8.62
2023-02-28T21:04:34.873Z,8.66
2023-02-28T21:07:02.327Z,8.63
2023-02-28T21:09:29.870Z,8.60
2023-02-28T21:11:57.603Z,8.55
2023-02-28T21:14:26.077Z,8.61
2023-02-28T21:16:53.548Z,8.72
2023-02-28T21:19:21.889Z,8.74
2023-02-28T21:21:49.560Z,8.66
2023-02-28T21:24:19.301Z,8.57
2023-02-28T21:26:47.793Z,8.68
2023-02-28T21:29:16.033Z,8.69
2023-02-28T21:31:43.489Z,8.61
2023-02-28T21:34:12.187Z,8.57
2023-02-28T21:36:42.760Z,8.67
2023-02-28T21:39:25.558Z,8.80
2023-02-28T21:41:53.932Z,8.67
2023-02-28T21:44:23.017Z,8.75
2023-02-28T21:46:55.209Z,8.71
2023-02-28T21:49:23.289Z,8.76
2023-02-28T21:51:50.657Z,8.81
2023-02-28T21:54:18.374Z,8.84
2023-02-28T21:56:46.285Z,8.83
2023-02-28T21:59:13.747Z,8.67
2023-02-28T22:01:44.221Z,8.71
2023-02-28T22:04:21.196Z,8.71
2023-02-28T22:06:53.766Z,8.75
2023-02-28T22:09:21.660Z,8.86
2023-02-28T22:11:49.537Z,8.70
2023-02-28T22:14:17.344Z,8.70
2023-02-28T22:16:51.920Z,8.73
2023-02-28T22:19:21.194Z,8.77
2023-02-28T22:21:50.337Z,8.74
2023-02-28T22:24:20.901Z,8.82
2023-02-28T22:26:50.554Z,8.78
2023-02-28T22:29:18.093Z,8.67
2023-02-28T22:31:45.744Z,8.89
2023-02-28T22:34:13.744Z,8.95
2023-02-28T22:36:42.259Z,9.08
2023-02-28T22:39:10.814Z,8.93
2023-02-28T22:41:39.666Z,8.74
2023-02-28T22:44:07.684Z,8.76
2023-02-28T22:46:36.315Z,8.66
2023-02-28T22:49:05.407Z,8.66
2023-02-28T22:51:33.242Z,8.62
2023-02-28T22:54:00.853Z,8.57
2023-02-28T22:56:30.321Z,8.67
2023-02-28T22:58:59.859Z,8.73
2023-02-28T23:01:30.831Z,8.62
2023-02-28T23:03:58.951Z,8.62
2023-02-28T23:06:32.544Z,8.90
2023-02-28T23:09:03.602Z,8.91
2023-02-28T23:11:37.115Z,8.65
2023-02-28T23:14:05.775Z,8.77
2023-02-28T23:16:40.929Z,8.66
2023-02-28T23:19:12.216Z,8.77
2023-02-28T23:21:40.336Z,8.86
2023-02-28T23:24:11.886Z,8.71
2023-02-28T23:26:43.800Z,8.55
2023-02-28T23:29:12.679Z,8.55
2023-02-28T23:31:40.987Z,8.61
2023-02-28T23:34:09.454Z,8.58
2023-02-28T23:36:39.133Z,8.58
2023-02-28T23:39:06.966Z,8.55
2023-02-28T23:41:34.574Z,8.51
2023-02-28T23:44:02.317Z,8.53
2023-02-28T23:46:30.387Z,8.71
2023-02-28T23:48:59.097Z,8.70
2023-02-28T23:51:26.595Z,8.63
2023-02-28T23:53:54.433Z,8.58
2023-02-28T23:56:23.705Z,8.57
2023-02-28T23:58:52.070Z,8.36
